sensor_id;sensor_type;location;lat;lon;timestamp;temperature;humidity
8892;DHT22;4482;54.332;10.118;2022-12-10T00:00:42;1.10;99.90
8892;DHT22;4482;54.332;10.118;2022-12-10T00:03:08;1.00;99.90
8892;DHT22;4482;54.332;10.118;2022-12-10T00:05:35;0.90;99.90
8892;DHT22;4482;54.332;10.118;2022-12-10T00:08:03;0.80;99.90
8892;DHT22;4482;54.332;10.118;2022-12-10T00:10:30;0.80;99.90
8892;DHT22;4482;54.332;10.118;2022-12-10T00:12:58;0.80;99.90
8892;DHT22;4482;54.332;10.118;2022-12-10T00:15:25;0.80;99.90
8892;DHT22;4482;54.332;10.118;2022-12-10T00:17:51;0.80;99.90
8892;DHT22;4482;54.332;10.118;2022-12-10T00:20:18;0.80;99.90
8892;DHT22;4482;54.332;10.118;2022-12-10T00:22:45;0.80;99.90
8892;DHT22;4482;54.332;10.118;2022-12-10T00:25:12;0.80;99.90
8892;DHT22;4482;54.332;10.118;2022-12-10T00:27:39;0.80;99.90
8892;DHT22;4482;54.332;10.118;2022-12-10T00:30:08;0.80;99.90
8892;DHT22;4482;54.332;10.118;2022-12-10T00:32:35;0.80;99.90
8892;DHT22;4482;54.332;10.118;2022-12-10T00:35:02;0.80;99.90
8892;DHT22;4482;54.332;10.118;2022-12-10T00:37:30;0.70;99.90
8892;DHT22;4482;54.332;10.118;2022-12-10T00:39:56;0.70;99.90
8892;DHT22;4482;54.332;10.118;2022-12-10T00:42:23;0.70;99.90
8892;DHT22;4482;54.332;10.118;2022-12-10T00:44:50;0.70;99.90
8892;DHT22;4482;54.332;10.118;2022-12-10T00:47:18;0.60;99.90
8892;DHT22;4482;54.332;10.118;2022-12-10T00:49:45;0.60;99.90
8892;DHT22;4482;54.332;10.118;2022-12-10T00:52:12;0.60;99.90
8892;DHT22;4482;54.332;10.118;2022-12-10T00:54:39;0.60;99.90
8892;DHT22;4482;54.332;10.118;2022-12-10T00:57:06;0.60;99.90
8892;DHT22;4482;54.332;10.118;2022-12-10T00:59:33;0.60;99.90
8892;DHT22;4482;54.332;10.118;2022-12-10T01:02:00;0.60;99.90
8892;DHT22;4482;54.332;10.118;2022-12-10T01:04:28;0.60;99.90
8892;DHT22;4482;54.332;10.118;2022-12-10T01:06:55;0.50;99.90
8892;DHT22;4482;54.332;10.118;2022-12-10T01:09:23;0.60;99.90
8892;DHT22;4482;54.332;10.118;2022-12-10T01:11:52;0.60;99.90
8892;DHT22;4482;54.332;10.118;2022-12-10T01:14:22;0.60;99.90
8892;DHT22;4482;54.332;10.118;2022-12-10T01:16:49;0.60;99.90
8892;DHT22;4482;54.332;10.118;2022-12-10T01:19:16;0.50;99.90
8892;DHT22;4482;54.332;10.118;2022-12-10T01:21:45;0.50;99.90
8892;DHT22;4482;54.332;10.118;2022-12-10T01:24:11;0.60;99.90
8892;DHT22;4482;54.332;10.118;2022-12-10T01:26:38;0.50;99.90
8892;DHT22;4482;54.332;10.118;2022-12-10T01:29:05;0.50;99.90
8892;DHT22;4482;54.332;10.118;2022-12-10T01:31:33;0.50;99.90
8892;DHT22;4482;54.332;10.118;2022-12-10T01:34:01;0.50;99.90
8892;DHT22;4482;54.332;10.118;2022-12-10T01:36:29;0.50;99.90
8892;DHT22;4482;54.332;10.118;2022-12-10T01:38:58;0.60;99.90
8892;DHT22;4482;54.332;10.118;2022-12-10T01:41:28;0.50;99.90
8892;DHT22;4482;54.332;10.118;2022-12-10T01:43:58;0.50;99.90
8892;DHT22;4482;54.332;10.118;2022-12-10T01:46:27;0.50;99.90
8892;DHT22;4482;54.332;10.118;2022-12-10T01:48:54;0.50;99.90
8892;DHT22;4482;54.332;10.118;2022-12-10T01:51:23;0.40;99.90
8892;DHT22;4482;54.332;10.118;2022-12-10T01:53:51;0.50;99.90
8892;DHT22;4482;54.332;10.118;2022-12-10T01:56:19;0.40;99.90
8892;DHT22;4482;54.332;10.118;2022-12-10T01:58:48;0.50;99.90
8892;DHT22;4482;54.332;10.118;2022-12-10T02:01:23;0.40;99.90
8892;DHT22;4482;54.332;10.118;2022-12-10T02:03:57;0.40;99.90
8892;DHT22;4482;54.332;10.118;2022-12-10T02:06:34;0.40;99.90
8892;DHT22;4482;54.332;10.118;2022-12-10T02:09:09;0.50;99.90
8892;DHT22;4482;54.332;10.118;2022-12-10T02:11:42;0.50;99.90
8892;DHT22;4482;54.332;10.118;2022-12-10T02:14:16;0.50;99.90
8892;DHT22;4482;54.332;10.118;2022-12-10T02:16:48;0.50;99.90
8892;DHT22;4482;54.332;10.118;2022-12-10T02:19:22;0.50;99.90
8892;DHT22;4482;54.332;10.118;2022-12-10T02:21:53;0.40;99.90
8892;DHT22;4482;54.332;10.118;2022-12-10T02:24:23;0.50;99.90
8892;DHT22;4482;54.332;10.118;2022-12-10T02:27:00;0.40;99.90
8892;DHT22;4482;54.332;10.118;2022-12-10T02:29:32;0.50;99.90
8892;DHT22;4482;54.332;10.118;2022-12-10T02:32:03;0.40;99.90
8892;DHT22;4482;54.332;10.118;2022-12-10T02:34:34;0.50;99.90
8892;DHT22;4482;54.332;10.118;2022-12-10T02:37:04;0.40;99.90
8892;DHT22;4482;54.332;10.118;2022-12-10T02:39:36;0.40;99.90
8892;DHT22;4482;54.332;10.118;2022-12-10T02:42:06;0.40;99.90
8892;DHT22;4482;54.332;10.118;2022-12-10T02:44:36;0.40;99.90
8892;DHT22;4482;54.332;10.118;2022-12-10T02:47:05;0.40;99.90
8892;DHT22;4482;54.332;10.118;2022-12-10T02:49:33;0.50;99.90
8892;DHT22;4482;54.332;10.118;2022-12-10T02:52:07;0.50;99.90
8892;DHT22;4482;54.332;10.118;2022-12-10T02:54:40;0.50;99.90
8892;DHT22;4482;54.332;10.118;2022-12-10T02:57:29;0.40;99.90
8892;DHT22;4482;54.332;10.118;2022-12-10T03:00:06;0.50;99.90
8892;DHT22;4482;54.332;10.118;2022-12-10T03:02:43;0.50;99.90
8892;DHT22;4482;54.332;10.118;2022-12-10T03:05:17;0.50;99.90
8892;DHT22;4482;54.332;10.118;2022-12-10T03:07:49;0.40;99.90
8892;DHT22;4482;54.332;10.118;2022-12-10T03:10:24;0.40;99.90
8892;DHT22;4482;54.332;10.118;2022-12-10T03:12:57;0.40;99.90
8892;DHT22;4482;54.332;10.118;2022-12-10T03:15:28;0.40;99.90
8892;DHT22;4482;54.332;10.118;2022-12-10T03:17:56;0.40;99.90
8892;DHT22;4482;54.332;10.118;2022-12-10T03:20:26;0.40;99.90
8892;DHT22;4482;54.332;10.118;2022-12-10T03:22:53;0.40;99.90
8892;DHT22;4482;54.332;10.118;2022-12-10T03:25:24;0.50;99.90
8892;DHT22;4482;54.332;10.118;2022-12-10T03:27:54;0.50;99.90
8892;DHT22;4482;54.332;10.118;2022-12-10T03:30:21;0.50;99.90
8892;DHT22;4482;54.332;10.118;2022-12-10T03:32:50;0.50;99.90
8892;DHT22;4482;54.332;10.118;2022-12-10T03:35:20;0.50;99.90
8892;DHT22;4482;54.332;10.118;2022-12-10T03:37:49;0.50;99.90
8892;DHT22;4482;54.332;10.118;2022-12-10T03:40:17;0.50;99.90
8892;DHT22;4482;54.332;10.118;2022-12-10T03:42:45;0.50;99.90
8892;DHT22;4482;54.332;10.118;2022-12-10T03:45:11;0.40;99.90
8892;DHT22;4482;54.332;10.118;2022-12-10T03:47:39;0.40;99.90
8892;DHT22;4482;54.332;10.118;2022-12-10T03:50:08;0.40;99.90
8892;DHT22;4482;54.332;10.118;2022-12-10T03:52:36;0.40;99.90
8892;DHT22;4482;54.332;10.118;2022-12-10T03:55:04;0.40;99.90
8892;DHT22;4482;54.332;10.118;2022-12-10T03:57:32;0.40;99.90
8892;DHT22;4482;54.332;10.118;2022-12-10T03:59:59;0.40;99.90
8892;DHT22;4482;54.332;10.118;2022-12-10T04:02:26;0.40;99.90
8892;DHT22;4482;54.332;10.118;2022-12-10T04:04:52;0.40;99.90
8892;DHT22;4482;54.332;10.118;2022-12-10T04:07:21;0.40;99.90
8892;DHT22;4482;54.332;10.118;2022-12-10T04:09:50;0.40;99.90
8892;DHT22;4482;54.332;10.118;2022-12-10T04:12:17;0.40;99.90
8892;DHT22;4482;54.332;10.118;2022-12-10T04:14:44;0.40;99.90
8892;DHT22;4482;54.332;10.118;2022-12-10T04:17:30;0.40;99.90
8892;DHT22;4482;54.332;10.118;2022-12-10T04:19:57;0.40;99.90
8892;DHT22;4482;54.332;10.118;2022-12-10T04:22:25;0.40;99.90
8892;DHT22;4482;54.332;10.118;2022-12-10T04:25:15;0.40;99.90
8892;DHT22;4482;54.332;10.118;2022-12-10T04:28:00;0.40;99.90
8892;DHT22;4482;54.332;10.118;2022-12-10T04:30:26;0.40;99.90
8892;DHT22;4482;54.332;10.118;2022-12-10T04:32:53;0.40;99.90
8892;DHT22;4482;54.332;10.118;2022-12-10T04:35:20;0.40;99.90
8892;DHT22;4482;54.332;10.118;2022-12-10T04:37:48;0.40;99.90
8892;DHT22;4482;54.332;10.118;2022-12-10T04:40:15;0.40;99.90
8892;DHT22;4482;54.332;10.118;2022-12-10T04:42:42;0.40;99.90
8892;DHT22;4482;54.332;10.118;2022-12-10T04:45:09;0.40;99.90
8892;DHT22;4482;54.332;10.118;2022-12-10T04:47:36;0.40;99.90
8892;DHT22;4482;54.332;10.118;2022-12-10T04:50:04;0.40;99.90
8892;DHT22;4482;54.332;10.118;2022-12-10T04:52:30;0.40;99.90
8892;DHT22;4482;54.332;10.118;2022-12-10T04:54:59;0.40;99.90
8892;DHT22;4482;54.332;10.118;2022-12-10T04:57:25;0.40;99.90
8892;DHT22;4482;54.332;10.118;2022-12-10T04:59:52;0.40;99.90
8892;DHT22;4482;54.332;10.118;2022-12-10T05:02:19;0.40;99.90
8892;DHT22;4482;54.332;10.118;2022-12-10T05:04:48;0.40;99.90
8892;DHT22;4482;54.332;10.118;2022-12-10T05:07:15;0.40;99.90
8892;DHT22;4482;54.332;10.118;2022-12-10T05:09:41;0.40;99.90
8892;DHT22;4482;54.332;10.118;2022-12-10T05:12:10;0.40;99.90
8892;DHT22;4482;54.332;10.118;2022-12-10T05:14:37;0.40;99.90
8892;DHT22;4482;54.332;10.118;2022-12-10T05:17:03;0.40;99.90
8892;DHT22;4482;54.332;10.118;2022-12-10T05:19:30;0.40;99.90
8892;DHT22;4482;54.332;10.118;2022-12-10T05:21:57;0.40;99.90
8892;DHT22;4482;54.332;10.118;2022-12-10T05:24:41;0.40;99.90
8892;DHT22;4482;54.332;10.118;2022-12-10T05:27:09;0.40;99.90
8892;DHT22;4482;54.332;10.118;2022-12-10T05:29:36;0.60;99.90
8892;DHT22;4482;54.332;10.118;2022-12-10T05:32:03;0.70;99.90
8892;DHT22;4482;54.332;10.118;2022-12-10T05:34:30;0.60;99.90
8892;DHT22;4482;54.332;10.118;2022-12-10T05:36:57;0.50;99.90
8892;DHT22;4482;54.332;10.118;2022-12-10T05:39:24;0.50;99.90
8892;DHT22;4482;54.332;10.118;2022-12-10T05:41:51;0.40;99.90
8892;DHT22;4482;54.332;10.118;2022-12-10T05:44:19;0.40;99.90
8892;DHT22;4482;54.332;10.118;2022-12-10T05:46:46;0.40;99.90
8892;DHT22;4482;54.332;10.118;2022-12-10T05:49:13;0.40;99.90
8892;DHT22;4482;54.332;10.118;2022-12-10T05:51:40;0.40;99.90
8892;DHT22;4482;54.332;10.118;2022-12-10T05:54:07;0.40;99.90
8892;DHT22;4482;54.332;10.118;2022-12-10T05:56:36;0.40;99.90
8892;DHT22;4482;54.332;10.118;2022-12-10T05:59:03;0.40;99.90
8892;DHT22;4482;54.332;10.118;2022-12-10T06:01:33;0.40;99.90
8892;DHT22;4482;54.332;10.118;2022-12-10T06:04:02;0.40;99.90
8892;DHT22;4482;54.332;10.118;2022-12-10T06:06:31;0.40;99.90
8892;DHT22;4482;54.332;10.118;2022-12-10T06:08:59;0.30;99.90
8892;DHT22;4482;54.332;10.118;2022-12-10T06:11:26;0.30;99.90
8892;DHT22;4482;54.332;10.118;2022-12-10T06:13:54;0.30;99.90
8892;DHT22;4482;54.332;10.118;2022-12-10T06:16:23;0.30;99.90
8892;DHT22;4482;54.332;10.118;2022-12-10T06:18:52;0.40;99.90
8892;DHT22;4482;54.332;10.118;2022-12-10T06:21:20;0.30;99.90
8892;DHT22;4482;54.332;10.118;2022-12-10T06:23:48;0.30;99.90
8892;DHT22;4482;54.332;10.118;2022-12-10T06:26:19;0.30;99.90
8892;DHT22;4482;54.332;10.118;2022-12-10T06:28:47;0.30;99.90
8892;DHT22;4482;54.332;10.118;2022-12-10T06:31:14;0.20;99.90
8892;DHT22;4482;54.332;10.118;2022-12-10T06:33:42;0.30;99.90
8892;DHT22;4482;54.332;10.118;2022-12-10T06:36:12;0.20;99.90
8892;DHT22;4482;54.332;10.118;2022-12-10T06:38:40;0.20;99.90
8892;DHT22;4482;54.332;10.118;2022-12-10T06:41:08;0.20;99.90
8892;DHT22;4482;54.332;10.118;2022-12-10T06:43:36;0.20;99.90
8892;DHT22;4482;54.332;10.118;2022-12-10T06:46:07;0.20;99.90
8892;DHT22;4482;54.332;10.118;2022-12-10T06:48:34;0.20;99.90
8892;DHT22;4482;54.332;10.118;2022-12-10T06:51:02;0.20;99.90
8892;DHT22;4482;54.332;10.118;2022-12-10T06:53:30;0.30;99.90
8892;DHT22;4482;54.332;10.118;2022-12-10T06:55:58;0.30;99.90
8892;DHT22;4482;54.332;10.118;2022-12-10T06:58:27;0.30;99.90
8892;DHT22;4482;54.332;10.118;2022-12-10T07:00:53;0.40;99.90
8892;DHT22;4482;54.332;10.118;2022-12-10T07:03:20;0.60;99.90
8892;DHT22;4482;54.332;10.118;2022-12-10T07:05:47;0.40;99.90
8892;DHT22;4482;54.332;10.118;2022-12-10T07:08:15;0.30;99.90
8892;DHT22;4482;54.332;10.118;2022-12-10T07:10:44;0.20;99.90
8892;DHT22;4482;54.332;10.118;2022-12-10T07:13:11;0.20;99.90
8892;DHT22;4482;54.332;10.118;2022-12-10T07:15:38;0.20;99.90
8892;DHT22;4482;54.332;10.118;2022-12-10T07:18:05;0.10;99.90
8892;DHT22;4482;54.332;10.118;2022-12-10T07:20:31;0.10;99.90
8892;DHT22;4482;54.332;10.118;2022-12-10T07:22:59;0.10;99.90
8892;DHT22;4482;54.332;10.118;2022-12-10T07:25:26;0.10;99.90
8892;DHT22;4482;54.332;10.118;2022-12-10T07:27:54;0.10;99.90
8892;DHT22;4482;54.332;10.118;2022-12-10T07:30:21;0.10;99.90
8892;DHT22;4482;54.332;10.118;2022-12-10T07:32:47;0.10;99.90
8892;DHT22;4482;54.332;10.118;2022-12-10T07:35:14;0.10;99.90
8892;DHT22;4482;54.332;10.118;2022-12-10T07:37:41;0.10;99.90
8892;DHT22;4482;54.332;10.118;2022-12-10T07:40:09;0.10;99.90
8892;DHT22;4482;54.332;10.118;2022-12-10T07:42:36;0.10;99.90
8892;DHT22;4482;54.332;10.118;2022-12-10T07:45:06;0.10;99.90
8892;DHT22;4482;54.332;10.118;2022-12-10T07:47:35;0.00;99.90
8892;DHT22;4482;54.332;10.118;2022-12-10T07:50:02;0.10;99.90
8892;DHT22;4482;54.332;10.118;2022-12-10T07:52:28;0.00;99.90
8892;DHT22;4482;54.332;10.118;2022-12-10T07:54:55;0.10;99.90
8892;DHT22;4482;54.332;10.118;2022-12-10T07:57:22;0.40;99.90
8892;DHT22;4482;54.332;10.118;2022-12-10T07:59:49;0.30;99.90
8892;DHT22;4482;54.332;10.118;2022-12-10T08:02:17;0.20;99.90
8892;DHT22;4482;54.332;10.118;2022-12-10T08:04:44;0.20;99.90
8892;DHT22;4482;54.332;10.118;2022-12-10T08:07:11;0.10;99.90
8892;DHT22;4482;54.332;10.118;2022-12-10T08:09:37;0.10;99.90
8892;DHT22;4482;54.332;10.118;2022-12-10T08:12:04;0.10;99.90
8892;DHT22;4482;54.332;10.118;2022-12-10T08:14:31;0.10;99.90
8892;DHT22;4482;54.332;10.118;2022-12-10T08:16:59;0.10;99.90
8892;DHT22;4482;54.332;10.118;2022-12-10T08:19:27;0.10;99.90
8892;DHT22;4482;54.332;10.118;2022-12-10T08:21:53;0.00;99.90
8892;DHT22;4482;54.332;10.118;2022-12-10T08:24:20;0.60;99.90
8892;DHT22;4482;54.332;10.118;2022-12-10T08:26:47;0.50;99.90
8892;DHT22;4482;54.332;10.118;2022-12-10T08:29:14;0.60;99.90
8892;DHT22;4482;54.332;10.118;2022-12-10T08:31:41;0.50;99.90
8892;DHT22;4482;54.332;10.118;2022-12-10T08:34:12;0.50;99.90
8892;DHT22;4482;54.332;10.118;2022-12-10T08:36:41;0.50;99.90
8892;DHT22;4482;54.332;10.118;2022-12-10T08:39:08;0.60;99.90
8892;DHT22;4482;54.332;10.118;2022-12-10T08:41:36;0.50;99.90
8892;DHT22;4482;54.332;10.118;2022-12-10T08:44:03;0.40;99.90
8892;DHT22;4482;54.332;10.118;2022-12-10T08:46:30;0.40;99.90
8892;DHT22;4482;54.332;10.118;2022-12-10T08:48:56;0.50;99.90
8892;DHT22;4482;54.332;10.118;2022-12-10T08:51:25;0.50;99.90
8892;DHT22;4482;54.332;10.118;2022-12-10T08:53:53;0.50;99.90
8892;DHT22;4482;54.332;10.118;2022-12-10T08:56:21;0.40;99.90
8892;DHT22;4482;54.332;10.118;2022-12-10T08:58:48;0.30;99.90
8892;DHT22;4482;54.332;10.118;2022-12-10T09:01:16;0.10;99.90
8892;DHT22;4482;54.332;10.118;2022-12-10T09:03:44;0.10;99.90
8892;DHT22;4482;54.332;10.118;2022-12-10T09:06:13;0.10;99.90
8892;DHT22;4482;54.332;10.118;2022-12-10T09:08:40;0.00;99.90
8892;DHT22;4482;54.332;10.118;2022-12-10T09:11:11;-0.20;99.90
8892;DHT22;4482;54.332;10.118;2022-12-10T09:13:38;-0.20;99.90
8892;DHT22;4482;54.332;10.118;2022-12-10T09:16:05;-0.20;99.90
8892;DHT22;4482;54.332;10.118;2022-12-10T09:18:33;-0.20;99.90
8892;DHT22;4482;54.332;10.118;2022-12-10T09:20:59;-0.10;99.90
8892;DHT22;4482;54.332;10.118;2022-12-10T09:23:26;-0.10;99.90
8892;DHT22;4482;54.332;10.118;2022-12-10T09:25:53;-0.10;99.90
8892;DHT22;4482;54.332;10.118;2022-12-10T09:28:21;-0.10;99.90
8892;DHT22;4482;54.332;10.118;2022-12-10T09:30:55;-0.10;99.90
8892;DHT22;4482;54.332;10.118;2022-12-10T09:33:22;-0.10;99.90
8892;DHT22;4482;54.332;10.118;2022-12-10T09:35:48;-0.10;99.90
8892;DHT22;4482;54.332;10.118;2022-12-10T09:38:15;-0.10;99.90
8892;DHT22;4482;54.332;10.118;2022-12-10T09:40:46;-0.10;99.90
8892;DHT22;4482;54.332;10.118;2022-12-10T09:43:21;0.30;99.90
8892;DHT22;4482;54.332;10.118;2022-12-10T09:45:58;0.30;99.90
8892;DHT22;4482;54.332;10.118;2022-12-10T09:48:34;0.10;99.90
8892;DHT22;4482;54.332;10.118;2022-12-10T09:51:08;0.00;99.90
8892;DHT22;4482;54.332;10.118;2022-12-10T09:53:38;0.00;99.90
8892;DHT22;4482;54.332;10.118;2022-12-10T09:56:09;-0.10;99.90
8892;DHT22;4482;54.332;10.118;2022-12-10T09:58:42;0.00;99.90
8892;DHT22;4482;54.332;10.118;2022-12-10T10:01:12;-0.10;99.90
8892;DHT22;4482;54.332;10.118;2022-12-10T10:03:42;-0.10;99.90
8892;DHT22;4482;54.332;10.118;2022-12-10T10:06:11;-0.10;99.90
8892;DHT22;4482;54.332;10.118;2022-12-10T10:08:41;-0.10;99.90
8892;DHT22;4482;54.332;10.118;2022-12-10T10:11:11;0.10;99.90
8892;DHT22;4482;54.332;10.118;2022-12-10T10:13:43;-0.10;99.90
8892;DHT22;4482;54.332;10.118;2022-12-10T10:16:19;-0.10;99.90
8892;DHT22;4482;54.332;10.118;2022-12-10T10:18:50;-0.10;99.90
8892;DHT22;4482;54.332;10.118;2022-12-10T10:21:22;-0.10;99.90
8892;DHT22;4482;54.332;10.118;2022-12-10T10:23:49;-0.20;99.90
8892;DHT22;4482;54.332;10.118;2022-12-10T10:26:16;-0.20;99.90
8892;DHT22;4482;54.332;10.118;2022-12-10T10:28:44;-0.20;99.90
8892;DHT22;4482;54.332;10.118;2022-12-10T10:31:17;-0.30;99.90
8892;DHT22;4482;54.332;10.118;2022-12-10T10:33:49;-0.40;99.90
8892;DHT22;4482;54.332;10.118;2022-12-10T10:36:24;-0.40;99.90
8892;DHT22;4482;54.332;10.118;2022-12-10T10:38:51;-0.40;99.90
8892;DHT22;4482;54.332;10.118;2022-12-10T10:41:18;-0.40;99.90
8892;DHT22;4482;54.332;10.118;2022-12-10T10:43:46;-0.40;99.90
8892;DHT22;4482;54.332;10.118;2022-12-10T10:46:16;-0.40;99.90
8892;DHT22;4482;54.332;10.118;2022-12-10T10:48:44;-0.30;99.90
8892;DHT22;4482;54.332;10.118;2022-12-10T10:51:18;-0.30;99.90
8892;DHT22;4482;54.332;10.118;2022-12-10T10:53:48;-0.40;99.90
8892;DHT22;4482;54.332;10.118;2022-12-10T10:56:19;-0.40;99.90
8892;DHT22;4482;54.332;10.118;2022-12-10T10:58:54;-0.40;99.90
8892;DHT22;4482;54.332;10.118;2022-12-10T11:01:24;-0.40;99.90
8892;DHT22;4482;54.332;10.118;2022-12-10T11:03:55;-0.30;99.90
8892;DHT22;4482;54.332;10.118;2022-12-10T11:06:22;-0.30;99.90
8892;DHT22;4482;54.332;10.118;2022-12-10T11:08:51;-0.20;99.90
8892;DHT22;4482;54.332;10.118;2022-12-10T11:11:22;0.10;99.90
8892;DHT22;4482;54.332;10.118;2022-12-10T11:13:53;0.00;99.90
8892;DHT22;4482;54.332;10.118;2022-12-10T11:16:22;-0.10;99.90
8892;DHT22;4482;54.332;10.118;2022-12-10T11:18:55;-0.20;99.90
8892;DHT22;4482;54.332;10.118;2022-12-10T11:21:28;-0.30;99.90
8892;DHT22;4482;54.332;10.118;2022-12-10T11:23:56;-0.30;99.90
8892;DHT22;4482;54.332;10.118;2022-12-10T11:26:42;-0.30;99.90
8892;DHT22;4482;54.332;10.118;2022-12-10T11:29:26;-0.20;99.90
8892;DHT22;4482;54.332;10.118;2022-12-10T11:32:16;-0.30;99.90
8892;DHT22;4482;54.332;10.118;2022-12-10T11:34:59;-0.30;99.90
8892;DHT22;4482;54.332;10.118;2022-12-10T11:37:32;-0.30;99.90
8892;DHT22;4482;54.332;10.118;2022-12-10T11:40:21;-0.40;99.90
8892;DHT22;4482;54.332;10.118;2022-12-10T11:43:01;-0.40;99.90
8892;DHT22;4482;54.332;10.118;2022-12-10T11:45:45;-0.40;99.90
8892;DHT22;4482;54.332;10.118;2022-12-10T11:48:27;-0.40;99.90
8892;DHT22;4482;54.332;10.118;2022-12-10T11:50:59;-0.50;99.90
8892;DHT22;4482;54.332;10.118;2022-12-10T11:53:40;-0.60;99.90
8892;DHT22;4482;54.332;10.118;2022-12-10T11:56:20;-0.60;99.90
8892;DHT22;4482;54.332;10.118;2022-12-10T11:58:58;-0.70;99.90
8892;DHT22;4482;54.332;10.118;2022-12-10T12:01:45;-0.70;99.90
8892;DHT22;4482;54.332;10.118;2022-12-10T12:04:28;-0.60;99.90
8892;DHT22;4482;54.332;10.118;2022-12-10T12:07:17;-0.60;99.90
8892;DHT22;4482;54.332;10.118;2022-12-10T12:09:57;-0.60;99.90
8892;DHT22;4482;54.332;10.118;2022-12-10T12:12:32;-0.50;99.90
8892;DHT22;4482;54.332;10.118;2022-12-10T12:15:05;-0.50;99.90
8892;DHT22;4482;54.332;10.118;2022-12-10T12:17:43;-0.50;99.90
8892;DHT22;4482;54.332;10.118;2022-12-10T12:20:16;-0.40;99.90
8892;DHT22;4482;54.332;10.118;2022-12-10T12:22:48;-0.40;99.90
8892;DHT22;4482;54.332;10.118;2022-12-10T12:25:21;-0.40;99.90
8892;DHT22;4482;54.332;10.118;2022-12-10T12:27:51;-0.40;99.90
8892;DHT22;4482;54.332;10.118;2022-12-10T12:30:21;-0.40;99.90
8892;DHT22;4482;54.332;10.118;2022-12-10T12:32:55;-0.50;99.90
8892;DHT22;4482;54.332;10.118;2022-12-10T12:35:28;-0.50;99.90
8892;DHT22;4482;54.332;10.118;2022-12-10T12:37:59;-0.50;99.90
8892;DHT22;4482;54.332;10.118;2022-12-10T12:40:29;-0.60;99.90
8892;DHT22;4482;54.332;10.118;2022-12-10T12:42:59;-0.60;99.90
8892;DHT22;4482;54.332;10.118;2022-12-10T12:45:32;-0.60;99.90
8892;DHT22;4482;54.332;10.118;2022-12-10T12:48:11;-0.60;99.90
8892;DHT22;4482;54.332;10.118;2022-12-10T12:50:43;-0.60;99.90
8892;DHT22;4482;54.332;10.118;2022-12-10T12:53:13;-0.60;99.90
8892;DHT22;4482;54.332;10.118;2022-12-10T12:55:47;-0.60;99.90
8892;DHT22;4482;54.332;10.118;2022-12-10T12:58:26;-0.60;99.90
8892;DHT22;4482;54.332;10.118;2022-12-10T13:00:57;-0.60;99.90
8892;DHT22;4482;54.332;10.118;2022-12-10T13:03:33;-0.60;99.90
8892;DHT22;4482;54.332;10.118;2022-12-10T13:06:17;-0.60;99.90
8892;DHT22;4482;54.332;10.118;2022-12-10T13:08:46;-0.60;99.90
8892;DHT22;4482;54.332;10.118;2022-12-10T13:11:24;-0.40;99.90
8892;DHT22;4482;54.332;10.118;2022-12-10T13:14:13;-0.50;99.90
8892;DHT22;4482;54.332;10.118;2022-12-10T13:17:07;-0.50;99.90
8892;DHT22;4482;54.332;10.118;2022-12-10T13:19:36;-0.50;99.90
8892;DHT22;4482;54.332;10.118;2022-12-10T13:22:08;-0.50;99.90
8892;DHT22;4482;54.332;10.118;2022-12-10T13:24:59;-0.60;99.90
8892;DHT22;4482;54.332;10.118;2022-12-10T13:27:31;-0.60;99.90
8892;DHT22;4482;54.332;10.118;2022-12-10T13:30:00;-0.60;99.90
8892;DHT22;4482;54.332;10.118;2022-12-10T13:32:43;-0.70;99.90
8892;DHT22;4482;54.332;10.118;2022-12-10T13:35:29;-0.80;99.90
8892;DHT22;4482;54.332;10.118;2022-12-10T13:38:04;-0.70;99.90
8892;DHT22;4482;54.332;10.118;2022-12-10T13:40:40;-0.70;99.90
8892;DHT22;4482;54.332;10.118;2022-12-10T13:43:27;-0.50;99.90
8892;DHT22;4482;54.332;10.118;2022-12-10T13:46:24;-0.50;99.90
8892;DHT22;4482;54.332;10.118;2022-12-10T13:48:53;-0.60;99.90
8892;DHT22;4482;54.332;10.118;2022-12-10T13:51:32;-0.60;99.90
8892;DHT22;4482;54.332;10.118;2022-12-10T13:54:11;-0.60;99.90
8892;DHT22;4482;54.332;10.118;2022-12-10T13:56:45;-0.70;99.90
8892;DHT22;4482;54.332;10.118;2022-12-10T13:59:22;-0.70;99.90
8892;DHT22;4482;54.332;10.118;2022-12-10T14:02:00;-0.70;99.90
8892;DHT22;4482;54.332;10.118;2022-12-10T14:04:47;-0.70;99.90
8892;DHT22;4482;54.332;10.118;2022-12-10T14:07:19;-0.70;99.90
8892;DHT22;4482;54.332;10.118;2022-12-10T14:09:49;-0.70;99.90
8892;DHT22;4482;54.332;10.118;2022-12-10T14:12:18;-0.60;99.90
8892;DHT22;4482;54.332;10.118;2022-12-10T14:14:51;-0.70;99.90
8892;DHT22;4482;54.332;10.118;2022-12-10T14:17:24;-0.70;99.90
8892;DHT22;4482;54.332;10.118;2022-12-10T14:19:57;-0.80;99.90
8892;DHT22;4482;54.332;10.118;2022-12-10T14:22:30;-0.80;99.90
8892;DHT22;4482;54.332;10.118;2022-12-10T14:24:59;-0.80;99.90
8892;DHT22;4482;54.332;10.118;2022-12-10T14:27:27;-0.80;99.90
8892;DHT22;4482;54.332;10.118;2022-12-10T14:30:00;-0.50;99.90
8892;DHT22;4482;54.332;10.118;2022-12-10T14:32:31;-0.50;99.90
8892;DHT22;4482;54.332;10.118;2022-12-10T14:34:59;-0.50;99.90
8892;DHT22;4482;54.332;10.118;2022-12-10T14:37:30;-0.70;99.90
8892;DHT22;4482;54.332;10.118;2022-12-10T14:39:58;-0.70;99.90
8892;DHT22;4482;54.332;10.118;2022-12-10T14:42:25;-0.70;99.90
8892;DHT22;4482;54.332;10.118;2022-12-10T14:44:57;-0.70;99.90
8892;DHT22;4482;54.332;10.118;2022-12-10T14:47:25;-0.70;99.90
8892;DHT22;4482;54.332;10.118;2022-12-10T14:49:53;-0.70;99.90
8892;DHT22;4482;54.332;10.118;2022-12-10T14:52:23;-0.60;99.90
8892;DHT22;4482;54.332;10.118;2022-12-10T14:54:52;-0.70;99.90
8892;DHT22;4482;54.332;10.118;2022-12-10T14:57:22;-0.70;99.90
8892;DHT22;4482;54.332;10.118;2022-12-10T14:59:55;-0.70;99.90
8892;DHT22;4482;54.332;10.118;2022-12-10T15:02:28;-0.70;99.90
8892;DHT22;4482;54.332;10.118;2022-12-10T15:04:56;-0.70;99.90
8892;DHT22;4482;54.332;10.118;2022-12-10T15:07:26;-0.60;99.90
8892;DHT22;4482;54.332;10.118;2022-12-10T15:09:54;0.00;99.90
8892;DHT22;4482;54.332;10.118;2022-12-10T15:12:31;-0.20;99.90
8892;DHT22;4482;54.332;10.118;2022-12-10T15:15:05;-0.30;99.90
8892;DHT22;4482;54.332;10.118;2022-12-10T15:17:36;-0.40;99.90
8892;DHT22;4482;54.332;10.118;2022-12-10T15:20:19;-0.50;99.90
8892;DHT22;4482;54.332;10.118;2022-12-10T15:22:46;-0.50;99.90
8892;DHT22;4482;54.332;10.118;2022-12-10T15:25:21;-0.50;99.90
8892;DHT22;4482;54.332;10.118;2022-12-10T15:28:20;-0.60;99.90
8892;DHT22;4482;54.332;10.118;2022-12-10T15:30:47;-0.60;99.90
8892;DHT22;4482;54.332;10.118;2022-12-10T15:33:24;-0.60;99.90
8892;DHT22;4482;54.332;10.118;2022-12-10T15:35:54;-0.60;99.90
8892;DHT22;4482;54.332;10.118;2022-12-10T15:38:22;-0.60;99.90
8892;DHT22;4482;54.332;10.118;2022-12-10T15:40:51;-0.40;99.90
8892;DHT22;4482;54.332;10.118;2022-12-10T15:43:25;0.10;99.90
8892;DHT22;4482;54.332;10.118;2022-12-10T15:45:52;-0.10;99.90
8892;DHT22;4482;54.332;10.118;2022-12-10T15:48:20;-0.30;99.90
8892;DHT22;4482;54.332;10.118;2022-12-10T15:50:50;-0.40;99.90
8892;DHT22;4482;54.332;10.118;2022-12-10T15:53:26;-0.40;99.90
8892;DHT22;4482;54.332;10.118;2022-12-10T15:55:55;-0.50;99.90
8892;DHT22;4482;54.332;10.118;2022-12-10T15:58:22;-0.60;99.90
8892;DHT22;4482;54.332;10.118;2022-12-10T16:00:49;-0.60;99.90
8892;DHT22;4482;54.332;10.118;2022-12-10T16:03:16;-0.60;99.90
8892;DHT22;4482;54.332;10.118;2022-12-10T16:05:46;-0.60;99.90
8892;DHT22;4482;54.332;10.118;2022-12-10T16:08:18;-0.60;99.90
8892;DHT22;4482;54.332;10.118;2022-12-10T16:10:47;-0.60;99.90
8892;DHT22;4482;54.332;10.118;2022-12-10T16:13:18;-0.60;99.90
8892;DHT22;4482;54.332;10.118;2022-12-10T16:15:49;-0.60;99.90